createdAt,value
2018-07-30T00:00:07.543Z,99867.86
2018-07-30T00:03:06.007Z,99871.16
2018-07-30T00:06:04.044Z,99876.84
2018-07-30T00:09:02.157Z,99874.44
2018-07-30T00:12:01.323Z,99868.98
2018-07-30T00:14:59.871Z,99871.66
2018-07-30T00:17:59.516Z,99865.94
2018-07-30T00:20:58.211Z,99874.68
2018-07-30T00:23:56.557Z,99867.85
2018-07-30T00:26:55.972Z,99869.56
2018-07-30T00:29:54.177Z,99872.50
2018-07-30T00:32:52.337Z,99871.89
2018-07-30T00:35:50.531Z,99863.14
2018-07-30T00:38:48.495Z,99862.39
2018-07-30T00:41:47.882Z,99868.14
2018-07-30T00:44:45.953Z,99861.17
2018-07-30T00:47:44.304Z,99862.77
2018-07-30T00:50:42.629Z,99859.97
2018-07-30T00:53:40.940Z,99860.59
2018-07-30T00:56:39.312Z,99853.41
2018-07-30T00:59:37.368Z,99864.11
2018-07-30T01:02:35.638Z,99866.89
2018-07-30T01:05:33.884Z,99869.59
2018-07-30T01:08:32.472Z,99865.40
2018-07-30T01:11:30.750Z,99869.19
2018-07-30T01:14:29.124Z,99861.41
2018-07-30T01:17:27.448Z,99865.17
2018-07-30T01:20:26.388Z,99864.20
2018-07-30T01:23:24.716Z,99864.56
2018-07-30T01:26:42.030Z,99865.53
2018-07-30T01:29:39.736Z,99870.03
2018-07-30T01:32:38.043Z,99863.83
2018-07-30T01:35:37.454Z,99862.86
2018-07-30T01:38:35.708Z,99872.34
2018-07-30T01:41:34.557Z,99871.74
2018-07-30T01:44:33.040Z,99871.26
2018-07-30T01:47:32.514Z,99873.89
2018-07-30T01:50:33.186Z,99876.07
2018-07-30T01:53:31.568Z,99873.88
2018-07-30T01:56:30.193Z,99872.17
2018-07-30T01:59:28.494Z,99878.84
2018-07-30T02:02:27.034Z,99879.92
2018-07-30T02:05:25.814Z,99878.67
2018-07-30T02:08:24.093Z,99881.31
2018-07-30T02:11:22.231Z,99885.66
2018-07-30T02:14:20.707Z,99886.89
2018-07-30T02:17:18.704Z,99886.30
2018-07-30T02:20:17.113Z,99876.11
2018-07-30T02:23:16.427Z,99882.28
2018-07-30T02:26:14.794Z,99877.50
2018-07-30T02:29:13.030Z,99873.67
2018-07-30T02:32:11.132Z,99875.60
2018-07-30T02:35:09.326Z,99879.53
2018-07-30T02:38:07.484Z,99878.80
2018-07-30T02:41:05.819Z,99881.09
2018-07-30T02:44:04.903Z,99883.17
2018-07-30T02:47:03.881Z,99883.99
2018-07-30T02:50:03.291Z,99887.59
2018-07-30T02:53:01.553Z,99882.13
2018-07-30T02:55:59.768Z,99889.41
2018-07-30T02:58:58.154Z,99892.71
2018-07-30T03:01:55.877Z,99889.30
2018-07-30T03:04:54.167Z,99890.48
2018-07-30T03:07:52.516Z,99889.28
2018-07-30T03:10:50.697Z,99895.00
2018-07-30T03:13:52.386Z,99896.42
2018-07-30T03:16:50.582Z,99905.32
2018-07-30T03:19:49.464Z,99906.48
2018-07-30T03:22:47.314Z,99907.98
2018-07-30T03:25:45.426Z,99906.44
2018-07-30T03:28:43.731Z,99911.02
2018-07-30T03:31:41.953Z,99908.46
2018-07-30T03:34:40.100Z,99911.72
2018-07-30T03:37:38.191Z,99914.50
2018-07-30T03:40:37.457Z,99909.59
2018-07-30T03:43:35.840Z,99913.39
2018-07-30T03:46:34.111Z,99913.17
2018-07-30T03:49:32.477Z,99922.68
2018-07-30T03:52:30.869Z,99918.09
2018-07-30T03:55:30.028Z,99916.09
2018-07-30T03:58:29.413Z,99916.15
2018-07-30T04:01:27.578Z,99919.08
2018-07-30T04:04:26.863Z,99920.69
2018-07-30T04:07:25.091Z,99927.08
2018-07-30T04:10:23.561Z,99922.11
2018-07-30T04:13:21.864Z,99926.16
2018-07-30T04:16:20.312Z,99928.12
2018-07-30T04:19:18.661Z,99928.31
2018-07-30T04:22:17.123Z,99928.38
2018-07-30T04:25:15.359Z,99929.14
2018-07-30T04:28:13.780Z,99923.83
2018-07-30T04:31:12.764Z,99922.05
2018-07-30T04:34:12.067Z,99915.25
2018-07-30T04:37:10.458Z,99911.83
2018-07-30T04:40:08.796Z,99919.26
2018-07-30T04:43:06.986Z,99915.27
2018-07-30T04:46:05.247Z,99920.00
2018-07-30T04:49:03.473Z,99919.49
2018-07-30T04:52:01.741Z,99918.31
2018-07-30T04:55:01.061Z,99915.97
2018-07-30T04:57:59.381Z,99917.52
2018-07-30T05:00:58.000Z,99926.73
2018-07-30T05:03:56.252Z,99931.72
2018-07-30T05:06:54.440Z,99926.89
2018-07-30T05:10:02.285Z,99926.92
2018-07-30T05:13:01.663Z,99928.65
2018-07-30T05:16:00.996Z,99928.91
2018-07-30T05:18:58.856Z,99929.02
2018-07-30T05:21:58.817Z,99931.97
2018-07-30T05:24:58.480Z,99931.33
2018-07-30T05:27:57.009Z,99935.30
2018-07-30T05:30:55.570Z,99934.05
2018-07-30T05:33:53.497Z,99937.20
2018-07-30T05:36:52.031Z,99941.44
2018-07-30T05:39:50.067Z,99935.77
2018-07-30T05:42:48.306Z,99934.50
2018-07-30T05:45:46.578Z,99937.17
2018-07-30T05:48:45.742Z,99934.05
2018-07-30T05:51:43.938Z,99936.00
2018-07-30T05:54:42.221Z,99936.22
2018-07-30T05:57:40.463Z,99939.84
2018-07-30T06:00:38.771Z,99941.98
2018-07-30T06:03:37.226Z,99943.92
2018-07-30T06:06:35.404Z,99949.52
2018-07-30T06:09:33.914Z,99949.33
2018-07-30T06:12:32.251Z,99948.16
2018-07-30T06:15:30.734Z,99943.02
2018-07-30T06:18:29.094Z,99944.20
2018-07-30T06:21:27.320Z,99939.09
2018-07-30T06:24:26.781Z,99938.38
2018-07-30T06:27:26.439Z,99943.75
2018-07-30T06:30:25.089Z,99944.48
2018-07-30T06:33:23.236Z,99949.00
2018-07-30T06:36:21.841Z,99944.35
2018-07-30T06:39:21.916Z,99944.57
2018-07-30T06:42:20.325Z,99949.16
2018-07-30T06:45:20.013Z,99951.58
2018-07-30T06:48:17.789Z,99949.94
2018-07-30T06:51:17.020Z,99951.98
2018-07-30T06:54:15.225Z,99961.50
2018-07-30T06:57:14.477Z,99965.63
2018-07-30T07:00:14.208Z,99961.58
2018-07-30T07:03:12.156Z,99962.30
2018-07-30T07:06:10.823Z,99961.98
2018-07-30T07:09:08.772Z,99962.53
2018-07-30T07:12:07.565Z,99965.10
2018-07-30T07:15:05.732Z,99957.17
2018-07-30T07:18:04.037Z,99961.63
2018-07-30T07:21:02.709Z,99960.10
2018-07-30T07:24:00.892Z,99971.95
2018-07-30T07:27:00.100Z,99962.14
2018-07-30T07:29:58.585Z,99962.13
2018-07-30T07:32:58.817Z,99967.24
2018-07-30T07:35:57.134Z,99965.56
2018-07-30T07:38:57.144Z,99962.48
2018-07-30T07:41:56.602Z,99958.38
2018-07-30T07:44:54.633Z,99967.50
2018-07-30T07:47:54.109Z,99965.11
2018-07-30T07:50:53.854Z,99970.53
2018-07-30T07:53:52.089Z,99968.10
2018-07-30T07:56:52.397Z,99968.44
2018-07-30T07:59:50.800Z,99970.63
2018-07-30T08:02:48.892Z,99967.34
2018-07-30T08:05:46.972Z,99951.53
2018-07-30T08:08:45.070Z,99965.13
2018-07-30T08:11:43.409Z,99960.89
2018-07-30T08:14:41.530Z,99968.00
2018-07-30T08:17:40.574Z,99964.63
2018-07-30T08:20:38.987Z,99971.25
2018-07-30T08:23:38.001Z,99979.55
2018-07-30T08:26:37.188Z,99976.66
2018-07-30T08:29:35.149Z,99980.56
2018-07-30T08:32:33.582Z,99974.23
2018-07-30T08:35:31.889Z,99978.77
2018-07-30T08:38:30.262Z,99978.97
2018-07-30T08:41:28.441Z,99979.77
2018-07-30T08:44:26.542Z,99976.08
2018-07-30T08:47:25.160Z,99980.77
2018-07-30T08:50:23.354Z,99979.02
2018-07-30T08:53:22.334Z,99988.22
2018-07-30T08:56:20.665Z,99992.30
2018-07-30T08:59:18.853Z,99993.30
2018-07-30T09:02:17.062Z,99989.16
2018-07-30T09:05:16.502Z,99989.77
2018-07-30T09:08:15.646Z,99989.97
2018-07-30T09:11:15.140Z,99988.94
2018-07-30T09:14:13.209Z,99990.66
2018-07-30T09:17:11.273Z,99982.73
2018-07-30T09:20:10.262Z,99988.47
2018-07-30T09:23:08.327Z,99990.92
2018-07-30T09:26:06.592Z,99991.30
2018-07-30T09:29:04.271Z,99995.67
2018-07-30T09:32:03.632Z,99991.25
2018-07-30T09:35:01.826Z,99991.53
2018-07-30T09:38:00.967Z,99993.98
2018-07-30T09:40:59.388Z,99995.06
2018-07-30T09:43:57.597Z,99991.48
2018-07-30T09:46:55.651Z,99992.06
2018-07-30T09:49:55.149Z,99991.83
2018-07-30T09:52:54.383Z,99993.13
2018-07-30T09:55:52.487Z,99990.45
2018-07-30T09:58:50.764Z,99987.34
2018-07-30T10:01:48.916Z,99994.97
2018-07-30T10:04:51.025Z,99980.67
2018-07-30T10:07:49.459Z,99983.27
2018-07-30T10:10:47.517Z,99978.75
2018-07-30T10:13:45.868Z,99973.80
2018-07-30T10:16:44.242Z,99972.06
2018-07-30T10:19:42.524Z,99978.66
2018-07-30T10:22:40.393Z,99982.42
2018-07-30T10:25:38.625Z,99972.89
2018-07-30T10:28:39.265Z,99972.81
2018-07-30T10:31:37.305Z,99970.64
2018-07-30T10:34:36.663Z,99975.59
2018-07-30T10:37:34.734Z,99974.95
2018-07-30T10:40:32.624Z,99965.13
2018-07-30T10:43:31.127Z,99970.66
2018-07-30T10:46:29.263Z,99963.83
2018-07-30T10:49:27.263Z,99960.26
2018-07-30T10:52:26.284Z,99957.38
2018-07-30T10:55:24.362Z,99960.05
2018-07-30T10:58:22.467Z,99972.28
2018-07-30T11:01:21.222Z,99966.38
2018-07-30T11:04:19.353Z,99958.29
2018-07-30T11:07:18.602Z,99955.37
2018-07-30T11:10:16.669Z,99955.06
2018-07-30T11:13:15.202Z,99957.98
2018-07-30T11:16:13.353Z,99957.34
2018-07-30T11:19:12.917Z,99955.10
2018-07-30T11:22:11.403Z,99942.10
2018-07-30T11:25:09.728Z,99942.23
2018-07-30T11:28:08.062Z,99947.47
2018-07-30T11:31:06.192Z,99944.06
2018-07-30T11:34:04.751Z,99939.37
2018-07-30T11:37:03.838Z,99946.17
2018-07-30T11:40:01.959Z,99942.78
2018-07-30T11:43:00.088Z,99939.22
2018-07-30T11:46:04.180Z,99935.25
2018-07-30T11:49:02.136Z,99928.27
2018-07-30T11:52:00.724Z,99929.12
2018-07-30T11:55:00.070Z,99928.16
2018-07-30T11:57:58.364Z,99944.42
2018-07-30T12:00:56.567Z,99938.55
2018-07-30T12:03:54.764Z,99939.43
2018-07-30T12:06:53.038Z,99940.67
2018-07-30T12:09:51.145Z,99933.20
2018-07-30T12:12:50.073Z,99925.11
2018-07-30T12:15:48.290Z,99923.13
2018-07-30T12:18:46.500Z,99918.45
2018-07-30T12:21:44.659Z,99914.30
2018-07-30T12:24:42.858Z,99909.13
2018-07-30T12:27:40.898Z,99912.11
2018-07-30T12:30:40.599Z,99910.72
2018-07-30T12:33:38.722Z,99916.03
2018-07-30T12:36:37.036Z,99914.03
2018-07-30T12:39:36.351Z,99917.53
2018-07-30T12:42:34.565Z,99919.05
2018-07-30T12:45:39.874Z,99904.14
2018-07-30T12:48:37.964Z,99908.75
2018-07-30T12:51:36.264Z,99902.45
2018-07-30T12:54:35.000Z,99892.89
2018-07-30T12:57:33.336Z,99883.40
2018-07-30T13:00:32.135Z,99891.63
2018-07-30T13:03:31.220Z,99882.98
2018-07-30T13:06:29.377Z,99880.55
2018-07-30T13:09:29.704Z,99885.42
2018-07-30T13:12:27.949Z,99882.09
2018-07-30T13:15:25.965Z,99880.16
2018-07-30T13:18:24.988Z,99872.30
2018-07-30T13:21:24.492Z,99878.51
2018-07-30T13:24:22.788Z,99875.68
2018-07-30T13:27:20.933Z,99873.66
2018-07-30T13:30:20.109Z,99875.19
2018-07-30T13:33:18.409Z,99872.13
2018-07-30T13:36:16.545Z,99872.41
2018-07-30T13:39:14.777Z,99869.08
2018-07-30T13:42:12.848Z,99874.47
2018-07-30T13:45:10.929Z,99871.09
2018-07-30T13:48:09.085Z,99866.44
2018-07-30T13:51:07.366Z,99869.89
2018-07-30T13:54:05.652Z,99864.86
2018-07-30T13:57:04.796Z,99867.41
2018-07-30T14:00:03.136Z,99862.07
2018-07-30T14:03:02.164Z,99867.16
2018-07-30T14:06:00.636Z,99858.32
2018-07-30T14:08:58.804Z,99859.61
2018-07-30T14:11:56.820Z,99858.13
2018-07-30T14:14:55.835Z,99864.56
2018-07-30T14:17:53.682Z,99855.11
2018-07-30T14:20:52.271Z,99852.17
2018-07-30T14:23:50.609Z,99851.59
2018-07-30T14:26:48.765Z,99852.24
2018-07-30T14:29:46.956Z,99847.35
2018-07-30T14:32:46.299Z,99846.48
2018-07-30T14:35:44.706Z,99833.61
2018-07-30T14:38:43.388Z,99828.82
2018-07-30T14:41:41.628Z,99833.30
2018-07-30T14:44:48.108Z,99829.20
2018-07-30T14:47:46.764Z,99825.45
2018-07-30T14:50:44.958Z,99828.27
2018-07-30T14:53:43.509Z,99823.16
2018-07-30T14:56:41.363Z,99821.64
2018-07-30T14:59:39.470Z,99816.48
2018-07-30T15:02:37.871Z,99819.48
2018-07-30T15:05:36.888Z,99810.06
2018-07-30T15:08:35.061Z,99809.73
2018-07-30T15:11:33.534Z,99808.55
2018-07-30T15:14:31.879Z,99815.45
2018-07-30T15:17:32.459Z,99815.41
2018-07-30T15:20:30.644Z,99808.94
2018-07-30T15:23:29.673Z,99804.88
2018-07-30T15:26:27.900Z,99809.11
2018-07-30T15:29:27.474Z,99804.08
2018-07-30T15:32:25.553Z,99809.45
2018-07-30T15:35:23.620Z,99804.91
2018-07-30T15:38:22.817Z,99805.10
2018-07-30T15:41:21.069Z,99800.44
2018-07-30T15:44:19.333Z,99803.29
2018-07-30T15:47:21.481Z,99805.77
2018-07-30T15:50:21.584Z,99804.11
2018-07-30T15:53:20.376Z,99797.31
2018-07-30T15:56:18.702Z,99803.27
2018-07-30T15:59:17.089Z,99803.52
2018-07-30T16:02:15.996Z,99796.36
2018-07-30T16:05:14.021Z,99798.19
2018-07-30T16:08:12.026Z,99799.09
2018-07-30T16:11:11.066Z,99809.83
2018-07-30T16:14:09.140Z,99811.46
2018-07-30T16:17:07.316Z,99808.79
2018-07-30T16:20:05.857Z,99817.37
2018-07-30T16:23:03.999Z,99814.20
2018-07-30T16:26:01.776Z,99816.89
2018-07-30T16:29:00.356Z,99827.27
2018-07-30T16:31:58.864Z,99829.20
2018-07-30T16:34:57.287Z,99827.57
2018-07-30T16:37:55.873Z,99820.92
2018-07-30T16:40:54.127Z,99833.55
2018-07-30T16:43:52.416Z,99831.86
2018-07-30T16:46:50.678Z,99829.34
2018-07-30T16:49:48.738Z,99827.94
2018-07-30T16:55:49.878Z,99832.17
2018-07-30T16:58:47.828Z,99833.03
2018-07-30T17:01:45.931Z,99827.23
2018-07-30T17:04:43.936Z,99835.13
2018-07-30T17:07:41.908Z,99836.98
2018-07-30T17:10:39.849Z,99838.95
2018-07-30T17:13:39.195Z,99844.95
2018-07-30T17:16:37.603Z,99844.64
2018-07-30T17:19:35.564Z,99847.47
2018-07-30T17:22:33.616Z,99843.87
2018-07-30T17:25:31.892Z,99841.96
2018-07-30T17:28:30.438Z,99843.45
2018-07-30T17:31:28.942Z,99841.28
2018-07-30T17:34:27.533Z,99843.79
2018-07-30T17:37:25.762Z,99843.19
2018-07-30T17:40:24.218Z,99847.92
2018-07-30T17:43:22.420Z,99844.99
2018-07-30T17:46:21.461Z,99844.61
2018-07-30T17:49:19.931Z,99851.61
2018-07-30T17:52:18.012Z,99853.55
2018-07-30T17:55:17.387Z,99859.66
2018-07-30T17:58:15.429Z,99866.91
2018-07-30T18:01:13.920Z,99867.98
2018-07-30T18:04:11.676Z,99876.85
2018-07-30T18:07:10.253Z,99867.77
2018-07-30T18:10:08.518Z,99874.48
2018-07-30T18:13:06.797Z,99878.30
2018-07-30T18:16:05.239Z,99883.86
2018-07-30T18:19:03.404Z,99886.59
2018-07-30T18:22:02.447Z,99889.06
2018-07-30T18:25:01.805Z,99889.69
2018-07-30T18:28:00.350Z,99887.96
2018-07-30T18:30:59.065Z,99885.38
2018-07-30T18:33:58.487Z,99895.77
2018-07-30T18:36:57.818Z,99900.69
2018-07-30T18:39:55.868Z,99899.84
2018-07-30T18:42:54.199Z,99903.19
2018-07-30T18:45:52.272Z,99913.33
2018-07-30T18:48:50.476Z,99909.02
2018-07-30T18:51:49.040Z,99907.53
2018-07-30T18:54:48.691Z,99906.76
2018-07-30T18:57:46.789Z,99917.48
2018-07-30T19:00:45.050Z,99917.67
2018-07-30T19:03:43.483Z,99921.74
2018-07-30T19:06:41.756Z,99923.81
2018-07-30T19:09:39.784Z,99930.30
2018-07-30T19:12:38.912Z,99932.63
2018-07-30T19:15:38.080Z,99932.30
2018-07-30T19:18:36.616Z,99940.78
2018-07-30T19:21:35.956Z,99945.36
2018-07-30T19:24:34.376Z,99940.73
2018-07-30T19:27:33.918Z,99945.58
2018-07-30T19:30:32.313Z,99944.36
2018-07-30T19:33:31.367Z,99946.84
2018-07-30T19:36:31.473Z,99954.05
2018-07-30T19:39:31.421Z,99960.10
2018-07-30T19:42:29.530Z,99961.69
2018-07-30T19:45:28.014Z,99957.19
2018-07-30T19:48:27.090Z,99962.53
2018-07-30T19:51:27.194Z,99964.19
2018-07-30T19:54:25.381Z,99967.83
2018-07-30T19:57:23.948Z,99973.80
2018-07-30T20:00:23.014Z,99971.31
2018-07-30T20:03:21.636Z,99975.83
2018-07-30T20:06:20.155Z,99974.58
2018-07-30T20:09:20.057Z,99974.82
2018-07-30T20:12:18.860Z,99974.67
2018-07-30T20:15:18.520Z,99978.53
2018-07-30T20:18:17.160Z,99986.94
2018-07-30T20:21:15.492Z,99983.19
2018-07-30T20:24:14.437Z,99986.38
2018-07-30T20:27:12.284Z,99982.63
2018-07-30T20:30:10.476Z,99985.56
2018-07-30T20:33:09.756Z,99988.63
2018-07-30T20:36:07.939Z,99990.19
2018-07-30T20:39:07.214Z,99994.58
2018-07-30T20:42:05.393Z,100001.83
2018-07-30T20:45:04.864Z,99996.41
2018-07-30T20:48:03.249Z,99996.53
2018-07-30T20:51:01.907Z,99990.01
2018-07-30T20:54:00.014Z,99995.92
2018-07-30T20:56:59.440Z,99997.35
2018-07-30T20:59:57.442Z,100000.48
2018-07-30T21:02:57.300Z,100004.14
2018-07-30T21:05:55.723Z,100001.94
2018-07-30T21:08:53.757Z,100004.81
2018-07-30T21:11:52.393Z,100013.86
2018-07-30T21:14:50.882Z,100001.02
2018-07-30T21:17:49.236Z,100006.66
2018-07-30T21:20:47.012Z,100010.70
2018-07-30T21:23:45.554Z,100004.67
2018-07-30T21:26:43.737Z,99997.19
2018-07-30T21:29:41.702Z,100001.22
2018-07-30T21:32:39.857Z,100003.27
2018-07-30T21:35:38.015Z,100009.78
2018-07-30T21:38:36.285Z,100004.89
2018-07-30T21:41:34.531Z,100016.03
2018-07-30T21:44:32.358Z,100011.44
2018-07-30T21:47:30.762Z,100014.95
2018-07-30T21:50:28.595Z,100021.97
2018-07-30T21:53:27.384Z,100017.38
2018-07-30T21:56:25.679Z,100009.80
2018-07-30T21:59:24.070Z,100011.91
2018-07-30T22:02:22.412Z,100008.16
2018-07-30T22:05:24.607Z,100006.41
2018-07-30T22:08:23.438Z,100000.75
2018-07-30T22:11:22.128Z,100001.38
2018-07-30T22:14:20.390Z,100000.94
2018-07-30T22:17:18.380Z,100001.38
2018-07-30T22:20:17.000Z,99998.52
2018-07-30T22:23:15.196Z,100005.33
2018-07-30T22:26:18.558Z,100006.77
2018-07-30T22:29:16.433Z,100005.78
2018-07-30T22:32:14.668Z,100003.09
2018-07-30T22:35:14.399Z,100006.19
2018-07-30T22:38:12.801Z,100004.48
2018-07-30T22:41:11.013Z,100000.39
2018-07-30T22:44:09.263Z,100005.48
2018-07-30T22:47:07.709Z,100008.34
2018-07-30T22:50:05.788Z,100003.92
2018-07-30T22:53:04.376Z,100004.81
2018-07-30T22:56:02.692Z,100001.05
2018-07-30T22:59:01.123Z,100004.30
2018-07-30T23:01:59.985Z,100000.98
2018-07-30T23:04:58.107Z,99996.03
2018-07-30T23:07:56.000Z,100007.97
2018-07-30T23:10:55.100Z,100006.62
2018-07-30T23:13:54.479Z,100007.21
2018-07-30T23:16:52.889Z,100009.56
2018-07-30T23:19:51.106Z,100004.67
2018-07-30T23:22:49.695Z,100003.27
2018-07-30T23:25:48.540Z,100006.47
2018-07-30T23:28:46.545Z,100006.62
2018-07-30T23:31:44.267Z,99997.03
2018-07-30T23:34:43.001Z,99988.25
2018-07-30T23:37:41.304Z,100000.13
2018-07-30T23:40:39.876Z,99998.42
2018-07-30T23:43:38.661Z,100004.56
2018-07-30T23:46:37.042Z,99997.88
2018-07-30T23:49:35.783Z,100001.53
2018-07-30T23:52:34.189Z,100000.66
2018-07-30T23:55:33.589Z,99993.73
2018-07-30T23:58:31.552Z,99996.67
